createdAt,value
2019-03-15T06:05:08.861Z,10.85
2019-03-15T06:08:11.944Z,10.45
2019-03-15T06:11:15.274Z,10.28
2019-03-15T06:14:18.796Z,11.15
2019-03-15T06:17:22.143Z,16.12
2019-03-15T06:20:25.433Z,11.73
2019-03-15T06:23:28.879Z,10.00
2019-03-15T06:26:32.195Z,12.05
2019-03-15T06:29:35.533Z,12.98
2019-03-15T06:32:38.827Z,16.37
2019-03-15T06:35:42.332Z,13.28
2019-03-15T06:38:45.606Z,12.55
2019-03-15T06:41:48.921Z,18.15
2019-03-15T06:44:57.947Z,16.45
2019-03-15T06:47:57.289Z,19.95
2019-03-15T06:51:00.598Z,12.60
2019-03-15T06:54:11.497Z,17.87
2019-03-15T06:57:08.950Z,14.33
2019-03-15T07:00:13.909Z,8.33
2019-03-15T07:03:17.268Z,13.85
2019-03-15T07:06:20.595Z,10.40
2019-03-15T07:09:23.893Z,14.35
2019-03-15T07:12:27.199Z,9.60
2019-03-15T07:15:30.522Z,12.88
2019-03-15T07:18:33.841Z,12.55
2019-03-15T07:21:37.149Z,12.20
2019-03-15T07:24:43.597Z,13.68
2019-03-15T07:27:45.718Z,15.65
2019-03-15T07:30:49.083Z,17.30
2019-03-15T07:33:52.394Z,6.80
2019-03-15T07:36:55.700Z,11.38
2019-03-15T07:39:59.017Z,14.23
2019-03-15T07:43:04.992Z,15.43
2019-03-15T07:46:07.392Z,17.07
2019-03-15T07:49:10.791Z,18.82
2019-03-15T07:52:14.123Z,11.78
2019-03-15T07:55:17.451Z,15.58
2019-03-15T07:58:20.826Z,16.10
2019-03-15T08:01:24.194Z,12.28
2019-03-15T08:04:28.052Z,16.87
2019-03-15T08:07:36.391Z,9.58
2019-03-15T08:10:36.412Z,13.62
2019-03-15T08:13:39.850Z,14.33
2019-03-15T08:16:43.187Z,14.10
2019-03-15T08:19:46.507Z,16.95
2019-03-15T08:22:49.872Z,15.93
2019-03-15T08:25:53.186Z,14.35
2019-03-15T08:28:56.536Z,15.72
2019-03-15T08:31:59.878Z,17.40
2019-03-15T08:35:04.335Z,23.45
2019-03-15T08:38:07.791Z,18.60
2019-03-15T08:41:11.111Z,16.35
2019-03-15T08:44:14.475Z,21.37
2019-03-15T08:47:17.775Z,19.40
2019-03-15T08:50:24.383Z,14.07
2019-03-15T08:53:26.202Z,16.57
2019-03-15T08:56:29.603Z,20.90
2019-03-15T08:59:32.933Z,19.40
2019-03-15T09:02:36.241Z,18.95
2019-03-15T09:05:39.620Z,16.97
2019-03-15T09:08:42.935Z,15.08
2019-03-15T09:11:46.275Z,14.07
2019-03-15T09:14:49.583Z,17.37
2019-03-15T09:17:52.976Z,17.12
2019-03-15T09:20:56.321Z,17.48
2019-03-15T09:23:59.631Z,14.23
2019-03-15T09:27:02.986Z,16.55
2019-03-15T09:30:22.627Z,15.10
2019-03-15T09:33:16.578Z,15.93
2019-03-15T09:36:19.889Z,18.20
2019-03-15T09:39:25.698Z,17.42
2019-03-15T09:42:29.024Z,15.83
2019-03-15T09:45:32.380Z,17.25
2019-03-15T09:48:35.700Z,14.38
2019-03-15T09:51:39.020Z,19.27
2019-03-15T09:54:42.328Z,12.68
2019-03-15T09:57:45.638Z,19.25
2019-03-15T10:00:48.980Z,13.78
2019-03-15T10:03:52.330Z,18.80
2019-03-15T10:06:55.629Z,11.60
2019-03-15T10:10:12.521Z,17.60
2019-03-15T10:13:06.102Z,14.07
2019-03-15T10:16:09.124Z,13.78
2019-03-15T10:19:12.439Z,14.53
2019-03-15T10:22:15.769Z,16.57
2019-03-15T10:25:19.093Z,12.80
2019-03-15T10:28:22.407Z,16.37
2019-03-15T10:31:26.817Z,14.38
2019-03-15T10:34:30.329Z,14.13
2019-03-15T10:37:33.637Z,7.55
2019-03-15T10:40:36.959Z,12.75
2019-03-15T10:43:40.265Z,10.18
2019-03-15T10:46:43.588Z,11.10
2019-03-15T10:49:46.895Z,11.88
2019-03-15T10:52:53.552Z,10.65
2019-03-15T10:56:00.501Z,10.23
2019-03-15T10:59:00.317Z,7.58
2019-03-15T11:02:03.799Z,10.08
2019-03-15T11:05:08.949Z,7.05
2019-03-15T11:08:12.240Z,8.73
2019-03-15T11:11:15.554Z,9.55
2019-03-15T11:14:18.852Z,9.23
2019-03-15T11:17:22.159Z,6.12
2019-03-15T11:20:25.562Z,7.22
2019-03-15T11:23:28.999Z,4.85
2019-03-15T11:26:32.368Z,5.92
2019-03-15T11:29:35.862Z,6.33
2019-03-15T11:32:41.789Z,5.60
2019-03-15T11:35:45.127Z,5.37
2019-03-15T11:38:48.434Z,4.60
2019-03-15T11:41:51.819Z,3.92
2019-03-15T11:44:55.080Z,4.03
2019-03-15T11:48:04.080Z,2.70
2019-03-15T11:51:05.916Z,3.83
2019-03-15T11:54:09.238Z,3.95
2019-03-15T11:57:12.550Z,4.55
2019-03-15T12:00:16.834Z,3.00
2019-03-15T12:03:20.184Z,4.22
2019-03-15T12:06:23.522Z,2.60
2019-03-15T12:09:26.821Z,2.25
2019-03-15T12:12:30.249Z,4.25
2019-03-15T12:15:36.144Z,3.70
2019-03-15T12:18:38.597Z,4.37
2019-03-15T12:21:41.937Z,4.70
2019-03-15T12:24:45.244Z,4.80
2019-03-15T12:27:48.576Z,5.30
2019-03-15T12:30:51.972Z,6.25
2019-03-15T12:33:55.305Z,4.70
2019-03-15T12:36:58.622Z,7.60
2019-03-15T12:40:01.933Z,7.72
2019-03-15T12:43:05.283Z,3.50
2019-03-15T12:46:08.621Z,4.45
2019-03-15T12:49:11.918Z,6.95
2019-03-15T12:52:15.228Z,3.65
2019-03-15T12:55:18.565Z,2.50
2019-03-15T12:58:23.161Z,4.80
2019-03-15T13:01:26.481Z,5.03
2019-03-15T13:04:29.806Z,5.90
2019-03-15T13:07:33.145Z,3.52
2019-03-15T13:10:36.479Z,4.20
2019-03-15T13:13:39.852Z,4.78
2019-03-15T13:16:44.787Z,5.80
2019-03-15T13:19:55.069Z,2.27
2019-03-15T13:22:53.161Z,2.02
2019-03-15T13:25:56.471Z,2.42
2019-03-15T13:28:59.816Z,2.70
2019-03-15T13:32:03.178Z,4.20
2019-03-15T13:35:08.828Z,9.70
2019-03-15T13:38:12.161Z,3.30
2019-03-15T13:41:15.499Z,3.70
2019-03-15T13:44:18.872Z,1.42
2019-03-15T13:47:22.155Z,3.20
2019-03-15T13:50:25.492Z,3.25
2019-03-15T13:53:28.791Z,2.00
2019-03-15T13:56:32.154Z,2.02
2019-03-15T13:59:35.448Z,2.25
2019-03-15T14:02:38.746Z,1.90
2019-03-15T14:05:42.048Z,2.90
2019-03-15T14:08:45.399Z,5.30
2019-03-15T14:11:48.718Z,1.77
2019-03-15T14:14:52.095Z,1.52
2019-03-15T14:17:55.395Z,1.37
2019-03-15T14:20:58.700Z,1.45
2019-03-15T14:24:02.013Z,1.45
2019-03-15T14:27:05.312Z,0.85
2019-03-15T14:30:11.169Z,0.80
2019-03-15T14:33:14.458Z,1.47
2019-03-15T14:36:18.250Z,1.25
2019-03-15T14:39:21.740Z,1.30
2019-03-15T14:42:25.012Z,6.22
2019-03-15T14:45:28.354Z,1.65
2019-03-15T14:48:31.622Z,3.85
2019-03-15T14:51:34.929Z,1.45
2019-03-15T14:54:50.221Z,1.95
2019-03-15T14:57:53.775Z,1.62
2019-03-15T15:00:57.129Z,1.65
2019-03-15T15:04:00.430Z,2.17
2019-03-15T15:07:03.804Z,2.65
2019-03-15T15:10:10.245Z,1.32
2019-03-15T15:13:13.588Z,2.85
2019-03-15T15:16:16.948Z,3.98
2019-03-15T15:19:20.396Z,3.10
2019-03-15T15:22:23.711Z,1.85
2019-03-15T15:25:27.062Z,1.42
2019-03-15T15:28:30.380Z,1.30
2019-03-15T15:31:33.793Z,2.30
2019-03-15T15:34:37.108Z,1.80
2019-03-15T15:37:40.431Z,1.77
2019-03-15T15:40:43.758Z,2.17
2019-03-15T15:43:47.066Z,1.12
2019-03-15T15:46:50.427Z,1.37
2019-03-15T15:49:53.745Z,0.85
2019-03-15T15:52:57.255Z,1.60
2019-03-15T15:56:00.552Z,1.17
2019-03-15T15:59:03.889Z,1.30
2019-03-15T16:02:08.621Z,1.70
2019-03-15T16:05:12.123Z,1.70
2019-03-15T16:08:15.644Z,2.60
2019-03-15T16:11:18.931Z,1.70
2019-03-15T16:14:22.280Z,2.70
2019-03-15T16:17:25.594Z,3.30
2019-03-15T16:20:28.920Z,6.75
2019-03-15T16:23:32.238Z,4.90
2019-03-15T16:26:35.672Z,2.40
2019-03-15T16:29:39.040Z,3.15
2019-03-15T16:32:42.371Z,2.05
2019-03-15T16:35:45.698Z,3.58
2019-03-15T16:38:49.073Z,2.50
2019-03-15T16:41:52.388Z,2.37
2019-03-15T16:44:55.716Z,3.12
2019-03-15T16:47:59.031Z,2.65
2019-03-15T16:51:02.381Z,2.20
2019-03-15T16:54:05.751Z,2.95
2019-03-15T16:57:09.043Z,2.12
2019-03-15T17:00:14.562Z,1.52
2019-03-15T17:03:17.993Z,2.72
2019-03-15T17:06:21.324Z,3.55
2019-03-15T17:09:24.666Z,2.75
2019-03-15T17:12:27.973Z,2.17
2019-03-15T17:15:31.474Z,4.60
2019-03-15T17:18:34.892Z,2.20
2019-03-15T17:21:38.243Z,3.50
2019-03-15T17:24:41.584Z,9.10
2019-03-15T17:27:44.906Z,4.10
2019-03-15T17:30:48.316Z,1.80
2019-03-15T17:33:51.630Z,2.83
2019-03-15T17:37:06.027Z,2.90
2019-03-15T17:39:59.996Z,3.87
2019-03-15T17:43:03.325Z,7.62
2019-03-15T17:46:06.636Z,5.55
2019-03-15T17:49:09.998Z,2.35
2019-03-15T17:52:13.334Z,4.25
2019-03-15T17:55:16.840Z,3.85
2019-03-15T17:58:20.130Z,5.80
2019-03-15T18:01:23.465Z,5.05
2019-03-15T18:04:26.790Z,3.95
2019-03-15T18:07:30.099Z,2.70
2019-03-15T18:10:33.416Z,3.83
2019-03-15T18:13:36.722Z,5.47
2019-03-15T18:16:40.049Z,4.05
2019-03-15T18:19:43.342Z,3.33
2019-03-15T18:22:46.717Z,7.65
2019-03-15T18:25:50.047Z,3.95
2019-03-15T18:28:53.364Z,2.62
2019-03-15T18:31:56.695Z,7.12
2019-03-15T18:34:59.987Z,3.42
2019-03-15T18:38:03.331Z,1.87
2019-03-15T18:41:06.686Z,3.98
2019-03-15T18:44:09.981Z,3.90
2019-03-15T18:47:13.370Z,3.55
2019-03-15T18:50:25.524Z,4.03
2019-03-15T18:53:28.913Z,6.55
2019-03-15T18:56:32.230Z,3.83
2019-03-15T18:59:40.094Z,4.45
2019-03-15T19:02:40.721Z,6.35
2019-03-15T19:05:44.031Z,3.08
2019-03-15T19:08:47.344Z,3.30
2019-03-15T19:11:50.647Z,4.37
2019-03-15T19:14:53.972Z,4.85
2019-03-15T19:17:57.321Z,5.22
2019-03-15T19:21:00.642Z,5.78
2019-03-15T19:24:04.043Z,5.70
2019-03-15T19:27:07.338Z,5.10
2019-03-15T19:30:15.880Z,6.45
2019-03-15T19:33:19.206Z,5.90
2019-03-15T19:36:22.560Z,8.28
2019-03-15T19:39:25.897Z,9.73
2019-03-15T19:42:29.182Z,7.00
2019-03-15T19:45:32.506Z,7.87
2019-03-15T19:48:35.835Z,7.45
2019-03-15T19:51:39.235Z,7.47
2019-03-15T19:54:42.541Z,8.03
2019-03-15T19:57:45.902Z,7.67
2019-03-15T20:00:49.307Z,7.97
2019-03-15T20:03:52.676Z,8.73
2019-03-15T20:06:56.048Z,5.62
2019-03-15T20:09:59.381Z,6.17
2019-03-15T20:13:02.970Z,6.60
2019-03-15T20:16:06.487Z,5.70
2019-03-15T20:19:09.809Z,7.78
2019-03-15T20:22:13.181Z,9.05
2019-03-15T20:25:17.086Z,4.20
2019-03-15T20:28:20.396Z,5.97
2019-03-15T20:31:23.779Z,8.48
2019-03-15T20:34:27.218Z,5.40
2019-03-15T20:37:30.827Z,7.90
2019-03-15T20:40:34.193Z,8.90
2019-03-15T20:43:37.654Z,6.67
2019-03-15T20:46:40.977Z,6.70
2019-03-15T20:49:44.322Z,9.95
2019-03-15T20:52:47.705Z,8.05
2019-03-15T20:55:52.710Z,5.58
2019-03-15T20:58:56.133Z,4.45
2019-03-15T21:01:59.481Z,7.47
2019-03-15T21:05:02.863Z,6.55
2019-03-15T21:08:07.860Z,5.35
2019-03-15T21:11:11.195Z,5.85
2019-03-15T21:14:14.495Z,7.03
2019-03-15T21:17:17.828Z,8.83
2019-03-15T21:20:22.837Z,8.55
2019-03-15T21:23:26.234Z,9.73
2019-03-15T21:26:29.573Z,7.80
2019-03-15T21:29:32.867Z,4.75
2019-03-15T21:32:36.191Z,6.72
2019-03-15T21:35:39.515Z,5.33
2019-03-15T21:38:48.164Z,8.30
2019-03-15T21:41:47.935Z,5.47
2019-03-15T21:44:51.287Z,5.60
2019-03-15T21:47:54.615Z,7.70
2019-03-15T21:50:58.836Z,6.97
2019-03-15T21:54:14.682Z,5.62
2019-03-15T21:57:21.825Z,4.62
2019-03-15T22:00:29.006Z,7.50
2019-03-15T22:03:40.614Z,4.97
2019-03-15T22:06:44.106Z,4.15
2019-03-15T22:09:47.449Z,5.80
2019-03-15T22:12:50.796Z,5.83
2019-03-15T22:15:54.087Z,5.85
2019-03-15T22:18:57.423Z,4.55
2019-03-15T22:22:00.760Z,5.83
2019-03-15T22:25:05.624Z,4.50
2019-03-15T22:28:09.137Z,5.33
2019-03-15T22:31:16.813Z,6.35
2019-03-15T22:34:17.804Z,6.92
2019-03-15T22:37:21.136Z,5.95
2019-03-15T22:40:26.122Z,7.60
2019-03-15T22:43:29.431Z,7.65
2019-03-15T22:46:32.733Z,8.88
2019-03-15T22:49:36.086Z,5.40
2019-03-15T22:52:39.419Z,9.20
2019-03-15T22:55:42.731Z,4.60
2019-03-15T22:58:46.065Z,6.30
2019-03-15T23:01:49.381Z,7.13
2019-03-15T23:04:52.713Z,9.13
2019-03-15T23:07:56.051Z,9.15
2019-03-15T23:10:59.396Z,6.53
2019-03-15T23:14:02.747Z,4.87
2019-03-15T23:17:06.272Z,7.42
2019-03-15T23:20:11.356Z,6.83
2019-03-15T23:23:23.923Z,6.62
2019-03-15T23:26:20.682Z,5.22
2019-03-15T23:29:24.008Z,8.10
2019-03-15T23:32:27.341Z,6.73
2019-03-15T23:35:30.669Z,6.65
2019-03-15T23:38:34.000Z,6.00
2019-03-15T23:41:37.300Z,6.65
2019-03-15T23:44:40.661Z,8.60
2019-03-15T23:47:44.192Z,8.98
2019-03-15T23:50:47.525Z,10.55
2019-03-15T23:53:50.862Z,9.38
2019-03-15T23:56:54.198Z,7.63
2019-03-15T23:59:57.519Z,8.83
